Time,TemperatureF,DewpointF,PressureIn,WindDirection,WindDirectionDegrees,WindSpeedMPH,WindSpeedGustMPH,Humidity,HourlyPrecipIn,Conditions,Clouds,dailyrainin,SoftwareType,DateUTC
2013-07-23 00:01:00,71.7,71.1,29.90,East,87,1.0,5.0,98,0.00,,---,0.00,VWS V14.01,2013-07-23 04:01:00,
2013-07-23 00:06:00,71.7,71.1,29.89,ESE,110,0.0,4.0,98,0.00,,---,0.00,VWS V14.01,2013-07-23 04:06:00,
2013-07-23 00:11:00,71.7,71.1,29.89,ESE,115,3.0,7.0,98,0.00,,---,0.00,VWS V14.01,2013-07-23 04:11:00,
2013-07-23 00:16:00,71.7,71.1,29.88,ESE,111,6.0,6.0,98,0.00,,---,0.00,VWS V14.01,2013-07-23 04:16:00,
2013-07-23 00:21:00,71.7,71.1,29.89,SE,127,5.0,5.0,98,0.00,,---,0.00,VWS V14.01,2013-07-23 04:21:00,
2013-07-23 00:26:00,71.7,71.1,29.89,East,100,6.0,6.0,98,0.00,,---,0.00,VWS V14.01,2013-07-23 04:26:00,
2013-07-23 00:31:00,71.6,71.0,29.88,SE,131,1.0,7.0,98,0.00,,---,0.00,VWS V14.01,2013-07-23 04:31:00,
2013-07-23 00:36:00,71.6,71.0,29.88,ESE,103,1.0,8.0,98,0.00,,---,0.00,VWS V14.01,2013-07-23 04:36:00,
2013-07-23 00:41:00,71.6,71.0,29.88,ESE,110,5.0,5.0,98,0.00,,---,0.00,VWS V14.01,2013-07-23 04:41:00,
2013-07-23 00:46:00,71.6,71.0,29.88,ESE,107,1.0,3.0,98,0.00,,---,0.00,VWS V14.01,2013-07-23 04:46:00,
2013-07-23 00:51:00,71.6,71.0,29.88,East,96,4.0,10.0,98,0.00,,---,0.00,VWS V14.01,2013-07-23 04:51:00,
2013-07-23 00:56:00,71.6,71.0,29.87,ENE,73,3.0,5.0,98,0.00,,---,0.00,VWS V14.01,2013-07-23 04:56:00,
2013-07-23 01:01:00,71.6,71.0,29.86,ESE,109,2.0,8.0,98,0.00,,---,0.00,VWS V14.01,2013-07-23 05:01:00,
2013-07-23 01:06:00,71.6,71.0,29.86,ESE,119,2.0,5.0,98,0.00,,---,0.00,VWS V14.01,2013-07-23 05:06:00,
2013-07-23 01:11:00,71.7,71.1,29.86,SE,125,3.0,5.0,98,0.00,,---,0.00,VWS V14.01,2013-07-23 05:11:00,
2013-07-23 01:16:00,71.7,71.1,29.86,East,93,1.0,7.0,98,0.00,,---,0.00,VWS V14.01,2013-07-23 05:16:00,
2013-07-23 01:21:00,71.7,71.1,29.85,East,92,2.0,10.0,98,0.00,,---,0.00,VWS V14.01,2013-07-23 05:21:00,
2013-07-23 01:26:00,71.7,71.1,29.85,SE,131,1.0,4.0,98,0.00,,---,0.00,VWS V14.01,2013-07-23 05:26:00,
2013-07-23 01:31:00,71.8,71.5,29.85,ESE,114,1.0,4.0,99,0.00,,---,0.00,VWS V14.01,2013-07-23 05:31:00,
2013-07-23 01:36:00,71.9,71.6,29.84,ESE,106,4.0,5.0,99,0.00,,---,0.00,VWS V14.01,2013-07-23 05:36:00,
2013-07-23 01:41:00,71.9,71.6,29.84,ESE,106,6.0,9.0,99,0.00,,---,0.00,VWS V14.01,2013-07-23 05:41:00,
2013-07-23 01:46:00,71.8,71.5,29.84,SE,131,1.0,7.0,99,0.00,,---,0.00,VWS V14.01,2013-07-23 05:46:00,
2013-07-23 01:51:00,71.8,71.5,29.84,East,82,1.0,7.0,99,0.00,,---,0.00,VWS V14.01,2013-07-23 05:51:00,
2013-07-23 01:56:00,71.9,71.6,29.84,SE,130,2.0,7.0,99,0.00,,---,0.00,VWS V14.01,2013-07-23 05:56:00,
2013-07-23 02:01:00,71.9,71.6,29.83,ESE,104,9.0,9.0,99,0.00,,---,0.00,VWS V14.01,2013-07-23 06:01:00,
2013-07-23 02:06:00,71.9,71.6,29.83,ESE,112,6.0,7.0,99,0.00,,---,0.00,VWS V14.01,2013-07-23 06:06:00,
2013-07-23 02:11:00,72.0,71.7,29.83,ESE,117,3.0,12.0,99,0.00,,---,0.00,VWS V14.01,2013-07-23 06:11:00,
2013-07-23 02:16:00,72.0,71.7,29.83,East,93,11.0,12.0,99,0.00,,---,0.00,VWS V14.01,2013-07-23 06:16:00,
2013-07-23 02:21:00,72.0,71.7,29.83,ESE,104,2.0,7.0,99,0.00,,---,0.00,VWS V14.01,2013-07-23 06:21:00,
2013-07-23 02:26:00,71.9,71.6,29.83,ESE,114,8.0,11.0,99,0.00,,---,0.00,VWS V14.01,2013-07-23 06:26:00,
2013-07-23 02:31:00,71.9,71.6,29.83,ESE,108,0.0,6.0,99,0.00,,---,0.00,VWS V14.01,2013-07-23 06:31:00,
2013-07-23 02:36:00,71.9,71.6,29.82,ESE,118,3.0,10.0,99,0.00,,---,0.00,VWS V14.01,2013-07-23 06:36:00,
2013-07-23 02:41:00,71.9,71.6,29.83,East,93,1.0,7.0,99,0.00,,---,0.00,VWS V14.01,2013-07-23 06:41:00,
2013-07-23 02:46:00,71.9,71.6,29.82,SE,127,1.0,10.0,99,0.00,,---,0.00,VWS V14.01,2013-07-23 06:46:00,
2013-07-23 02:51:00,71.9,71.6,29.82,SE,130,1.0,6.0,99,0.00,,---,0.00,VWS V14.01,2013-07-23 06:51:00,
2013-07-23 02:56:00,71.9,71.6,29.82,East,100,7.0,9.0,99,0.00,,---,0.00,VWS V14.01,2013-07-23 06:56:00,
2013-07-23 03:01:00,71.9,71.6,29.81,ESE,107,5.0,7.0,99,0.00,,---,0.00,VWS V14.01,2013-07-23 07:01:00,
2013-07-23 03:06:00,71.9,71.6,29.81,SE,127,1.0,5.0,99,0.00,,---,0.00,VWS V14.01,2013-07-23 07:06:00,
2013-07-23 03:11:00,72.0,71.7,29.81,ESE,112,2.0,3.0,99,0.00,,---,0.00,VWS V14.01,2013-07-23 07:11:00,
2013-07-23 03:16:00,72.0,71.7,29.80,ESE,108,4.0,5.0,99,0.00,,---,0.00,VWS V14.01,2013-07-23 07:16:00,
2013-07-23 03:22:00,72.1,71.8,29.80,East,98,1.0,4.0,99,0.00,,---,0.00,VWS V14.01,2013-07-23 07:22:00,
2013-07-23 03:27:00,72.2,71.9,29.80,SE,131,0.0,4.0,99,0.00,,---,0.00,VWS V14.01,2013-07-23 07:27:00,
2013-07-23 03:32:00,72.2,71.9,29.79,East,92,1.0,4.0,99,0.00,,---,0.00,VWS V14.01,2013-07-23 07:32:00,
2013-07-23 03:37:00,72.3,72.0,29.79,East,92,0.0,4.0,99,0.00,,---,0.00,VWS V14.01,2013-07-23 07:37:00,
2013-07-23 03:41:00,72.4,72.1,29.79,East,88,1.0,5.0,99,0.00,,---,0.00,VWS V14.01,2013-07-23 07:41:00,
2013-07-23 03:47:00,72.4,72.1,29.79,East,99,2.0,6.0,99,0.00,,---,0.00,VWS V14.01,2013-07-23 07:47:00,
2013-07-23 03:52:00,72.4,72.1,29.79,ESE,116,2.0,5.0,99,0.00,,---,0.00,VWS V14.01,2013-07-23 07:52:00,
2013-07-23 03:57:00,72.4,72.1,29.79,ESE,114,4.0,5.0,99,0.00,,---,0.00,VWS V14.01,2013-07-23 07:57:00,
2013-07-23 04:02:00,72.4,72.1,29.79,SSE,152,1.0,5.0,99,0.00,,---,0.00,VWS V14.01,2013-07-23 08:02:00,
2013-07-23 04:07:00,72.3,72.0,29.78,SE,128,4.0,4.0,99,0.00,,---,0.00,VWS V14.01,2013-07-23 08:07:00,
2013-07-23 04:12:00,72.3,72.0,29.77,ESE,120,1.0,4.0,99,0.00,,---,0.00,VWS V14.01,2013-07-23 08:12:00,
2013-07-23 04:17:00,72.3,72.0,29.77,ESE,114,3.0,5.0,99,0.00,,---,0.00,VWS V14.01,2013-07-23 08:17:00,
2013-07-23 04:22:00,72.3,72.0,29.77,ESE,119,3.0,5.0,99,0.00,,---,0.00,VWS V14.01,2013-07-23 08:22:00,
2013-07-23 04:27:00,72.4,72.1,29.77,ESE,116,3.0,4.0,99,0.00,,---,0.00,VWS V14.01,2013-07-23 08:27:00,
2013-07-23 04:32:00,72.3,72.0,29.77,SE,124,1.0,4.0,99,0.00,,---,0.00,VWS V14.01,2013-07-23 08:32:00,
2013-07-23 04:37:00,72.4,72.1,29.77,SE,134,0.0,3.0,99,0.00,,---,0.00,VWS V14.01,2013-07-23 08:37:00,
2013-07-23 04:42:00,72.4,72.1,29.77,ESE,120,4.0,5.0,99,0.00,,---,0.00,VWS V14.01,2013-07-23 08:42:00,
2013-07-23 04:47:00,72.4,72.1,29.77,SE,131,1.0,4.0,99,0.00,,---,0.00,VWS V14.01,2013-07-23 08:47:00,
2013-07-23 04:52:00,72.5,72.2,29.77,SE,129,2.0,5.0,99,0.00,,---,0.00,VWS V14.01,2013-07-23 08:52:00,
2013-07-23 04:57:00,72.5,72.2,29.77,ESE,102,0.0,5.0,99,0.00,,---,0.00,VWS V14.01,2013-07-23 08:57:00,
2013-07-23 05:02:00,72.5,72.2,29.76,SE,141,1.0,3.0,99,0.00,,---,0.00,VWS V14.01,2013-07-23 09:02:00,
2013-07-23 05:07:00,72.5,72.2,29.77,SE,129,0.0,4.0,99,0.00,,---,0.00,VWS V14.01,2013-07-23 09:07:00,
2013-07-23 05:12:00,72.5,72.2,29.76,ESE,123,0.0,4.0,99,0.00,,---,0.00,VWS V14.01,2013-07-23 09:12:00,
2013-07-23 05:17:00,72.5,72.2,29.76,SE,129,0.0,4.0,99,0.00,,---,0.00,VWS V14.01,2013-07-23 09:17:00,
2013-07-23 05:22:00,72.5,72.2,29.76,SE,125,0.0,4.0,99,0.00,,---,0.00,VWS V14.01,2013-07-23 09:22:00,
2013-07-23 05:27:00,72.5,72.2,29.76,SE,126,0.0,3.0,99,0.00,,---,0.00,VWS V14.01,2013-07-23 09:27:00,
2013-07-23 05:32:00,72.6,72.3,29.76,SE,126,2.0,4.0,99,0.00,,---,0.00,VWS V14.01,2013-07-23 09:32:00,
2013-07-23 05:37:00,72.6,72.3,29.76,SE,137,2.0,5.0,99,0.00,,---,0.00,VWS V14.01,2013-07-23 09:37:00,
2013-07-23 05:42:00,72.6,72.3,29.76,SE,144,0.0,5.0,99,0.00,,---,0.00,VWS V14.01,2013-07-23 09:42:00,
2013-07-23 05:47:00,72.6,72.3,29.76,SSE,147,4.0,5.0,99,0.00,,---,0.00,VWS V14.01,2013-07-23 09:47:00,
2013-07-23 05:52:00,72.8,72.5,29.76,SE,135,2.0,6.0,99,0.00,,---,0.00,VWS V14.01,2013-07-23 09:52:00,
2013-07-23 05:57:00,72.8,72.5,29.76,SE,131,1.0,4.0,99,0.00,,---,0.00,VWS V14.01,2013-07-23 09:57:00,
2013-07-23 06:02:00,72.9,72.6,29.76,SE,135,1.0,5.0,99,0.00,,---,0.00,VWS V14.01,2013-07-23 10:02:00,
2013-07-23 06:07:00,73.0,72.7,29.76,SE,129,2.0,7.0,99,0.00,,---,0.00,VWS V14.01,2013-07-23 10:07:00,
2013-07-23 06:12:00,73.0,72.7,29.75,SSE,154,4.0,5.0,99,0.00,,---,0.00,VWS V14.01,2013-07-23 10:12:00,
2013-07-23 06:17:00,73.0,72.7,29.75,SE,126,1.0,5.0,99,0.00,,---,0.00,VWS V14.01,2013-07-23 10:17:00,
2013-07-23 06:22:00,72.9,72.6,29.75,SE,135,0.0,5.0,99,0.00,,---,0.00,VWS V14.01,2013-07-23 10:22:00,
2013-07-23 06:27:00,73.0,72.7,29.75,SSE,162,4.0,4.0,99,0.01,,---,0.01,VWS V14.01,2013-07-23 10:27:00,
2013-07-23 06:32:00,73.0,72.7,29.75,SE,131,0.0,3.0,99,0.01,,---,0.01,VWS V14.01,2013-07-23 10:32:00,
2013-07-23 06:37:00,73.0,72.7,29.75,SE,137,0.0,3.0,99,0.01,,---,0.01,VWS V14.01,2013-07-23 10:37:00,
2013-07-23 06:42:00,73.1,72.8,29.75,SE,129,1.0,4.0,99,0.01,,---,0.01,VWS V14.01,2013-07-23 10:42:00,
2013-07-23 06:47:00,73.1,73.1,29.75,SSE,160,4.0,9.0,100,0.01,,---,0.01,VWS V14.01,2013-07-23 10:47:00,
2013-07-23 06:52:00,73.2,73.2,29.75,SE,145,3.0,5.0,100,0.02,,---,0.02,VWS V14.01,2013-07-23 10:52:00,
2013-07-23 06:57:00,73.3,73.3,29.75,SSE,156,1.0,5.0,100,0.02,,---,0.02,VWS V14.01,2013-07-23 10:57:00,
2013-07-23 07:02:00,73.4,73.4,29.74,SE,131,2.0,7.0,100,0.02,,---,0.02,VWS V14.01,2013-07-23 11:02:00,
2013-07-23 07:07:00,73.4,73.1,29.74,SSE,160,0.0,5.0,99,0.02,,---,0.02,VWS V14.01,2013-07-23 11:07:00,
2013-07-23 07:12:00,73.5,73.2,29.74,SE,139,1.0,5.0,99,0.02,,---,0.02,VWS V14.01,2013-07-23 11:12:00,
2013-07-23 07:17:00,73.6,73.3,29.73,SSE,150,2.0,4.0,99,0.02,,---,0.02,VWS V14.01,2013-07-23 11:17:00,
2013-07-23 07:22:00,73.7,73.4,29.73,SSE,168,6.0,7.0,99,0.02,,---,0.02,VWS V14.01,2013-07-23 11:22:00,
2013-07-23 07:27:00,73.7,73.4,29.73,SE,125,0.0,4.0,99,0.02,,---,0.02,VWS V14.01,2013-07-23 11:27:00,
2013-07-23 07:32:00,73.8,73.5,29.73,South,172,2.0,11.0,99,0.01,,---,0.02,VWS V14.01,2013-07-23 11:32:00,
2013-07-23 07:37:00,73.8,73.8,29.73,SSE,157,2.0,4.0,100,0.01,,---,0.02,VWS V14.01,2013-07-23 11:37:00,
2013-07-23 07:42:00,73.8,73.8,29.73,SE,143,2.0,8.0,100,0.01,,---,0.02,VWS V14.01,2013-07-23 11:42:00,
2013-07-23 07:47:00,73.8,73.8,29.73,SSE,166,3.0,7.0,100,0.01,,---,0.02,VWS V14.01,2013-07-23 11:47:00,
2013-07-23 07:52:00,73.8,73.8,29.73,SE,137,1.0,7.0,100,0.00,,---,0.02,VWS V14.01,2013-07-23 11:52:00,
2013-07-23 07:57:00,73.8,73.8,29.72,South,172,2.0,5.0,100,0.00,,---,0.02,VWS V14.01,2013-07-23 11:57:00,
2013-07-23 08:02:00,73.9,73.9,29.72,SE,142,4.0,6.0,100,0.00,,---,0.02,VWS V14.01,2013-07-23 12:02:00,
2013-07-23 08:07:00,73.9,73.9,29.72,SE,138,2.0,8.0,100,0.00,,---,0.02,VWS V14.01,2013-07-23 12:07:00,
2013-07-23 08:12:00,73.9,73.6,29.72,SSE,152,4.0,9.0,99,0.00,,---,0.02,VWS V14.01,2013-07-23 12:12:00,
2013-07-23 08:17:00,73.9,73.9,29.71,SSE,154,4.0,6.0,100,0.00,,---,0.02,VWS V14.01,2013-07-23 12:17:00,
2013-07-23 08:22:00,73.9,73.9,29.71,SE,146,1.0,9.0,100,0.00,,---,0.02,VWS V14.01,2013-07-23 12:22:00,
2013-07-23 08:27:00,73.9,73.9,29.71,SSE,154,4.0,6.0,100,0.00,,---,0.02,VWS V14.01,2013-07-23 12:27:00,
2013-07-23 08:32:00,74.0,73.7,29.71,South,177,3.0,7.0,99,0.00,,---,0.02,VWS V14.01,2013-07-23 12:32:00,
2013-07-23 08:37:00,74.1,74.1,29.71,SE,130,5.0,10.0,100,0.00,,---,0.02,VWS V14.01,2013-07-23 12:37:00,
2013-07-23 08:42:00,74.1,73.8,29.71,SE,141,1.0,6.0,99,0.00,,---,0.02,VWS V14.01,2013-07-23 12:42:00,
2013-07-23 08:47:00,74.1,73.8,29.70,SSE,158,4.0,9.0,99,0.00,,---,0.02,VWS V14.01,2013-07-23 12:47:00,
2013-07-23 08:52:00,74.1,73.8,29.70,South,183,3.0,5.0,99,0.00,,---,0.02,VWS V14.01,2013-07-23 12:52:00,
2013-07-23 08:57:00,74.2,73.9,29.70,South,172,1.0,7.0,99,0.00,,---,0.02,VWS V14.01,2013-07-23 12:57:00,
2013-07-23 09:02:00,74.3,74.0,29.69,SE,139,2.0,8.0,99,0.00,,---,0.02,VWS V14.01,2013-07-23 13:02:00,
2013-07-23 09:07:00,74.4,74.1,29.69,SSE,164,3.0,9.0,99,0.00,,---,0.02,VWS V14.01,2013-07-23 13:07:00,
2013-07-23 09:12:00,74.5,74.2,29.69,South,184,4.0,10.0,99,0.00,,---,0.02,VWS V14.01,2013-07-23 13:12:00,
2013-07-23 09:17:00,74.7,74.4,29.69,SSE,163,2.0,6.0,99,0.00,,---,0.02,VWS V14.01,2013-07-23 13:17:00,
2013-07-23 09:22:00,74.9,74.6,29.69,SSE,166,2.0,10.0,99,0.00,,---,0.02,VWS V14.01,2013-07-23 13:22:00,
2013-07-23 09:27:00,75.1,74.8,29.69,SSE,156,4.0,6.0,99,0.00,,---,0.02,VWS V14.01,2013-07-23 13:27:00,
2013-07-23 09:32:00,75.3,75.0,29.69,SSE,156,4.0,5.0,99,0.00,,---,0.02,VWS V14.01,2013-07-23 13:32:00,
2013-07-23 09:37:00,75.3,74.7,29.69,South,179,2.0,7.0,98,0.00,,---,0.02,VWS V14.01,2013-07-23 13:37:00,
2013-07-23 09:42:00,75.5,74.9,29.69,SW,226,2.0,9.0,98,0.00,,---,0.02,VWS V14.01,2013-07-23 13:42:00,
2013-07-23 09:47:00,75.5,74.9,29.69,South,185,4.0,5.0,98,0.00,,---,0.02,VWS V14.01,2013-07-23 13:47:00,
2013-07-23 09:52:00,75.5,74.6,29.68,SSE,157,5.0,7.0,97,0.00,,---,0.02,VWS V14.01,2013-07-23 13:52:00,
2013-07-23 09:57:00,75.5,74.6,29.68,SE,146,1.0,10.0,97,0.00,,---,0.02,VWS V14.01,2013-07-23 13:57:00,
2013-07-23 10:02:00,75.6,74.7,29.68,SSW,208,3.0,6.0,97,0.00,,---,0.02,VWS V14.01,2013-07-23 14:02:00,
2013-07-23 10:07:00,75.7,74.8,29.68,SW,217,3.0,7.0,97,0.00,,---,0.02,VWS V14.01,2013-07-23 14:07:00,
2013-07-23 10:13:00,75.8,74.9,29.67,South,185,0.0,4.0,97,0.00,,---,0.02,VWS V14.01,2013-07-23 14:13:00,
2013-07-23 10:18:00,75.9,75.0,29.67,SSE,168,3.0,4.0,97,0.00,,---,0.02,VWS V14.01,2013-07-23 14:18:00,
2013-07-23 10:23:00,76.0,74.8,29.68,SSE,165,2.0,9.0,96,0.00,,---,0.02,VWS V14.01,2013-07-23 14:23:00,
2013-07-23 10:28:00,76.0,74.8,29.68,South,177,6.0,9.0,96,0.00,,---,0.02,VWS V14.01,2013-07-23 14:28:00,
2013-07-23 10:33:00,76.0,74.8,29.68,South,177,4.0,9.0,96,0.00,,---,0.02,VWS V14.01,2013-07-23 14:33:00,
2013-07-23 10:38:00,76.1,74.9,29.68,SSE,168,1.0,4.0,96,0.00,,---,0.02,VWS V14.01,2013-07-23 14:38:00,
2013-07-23 10:43:00,76.3,75.1,29.68,SE,145,2.0,9.0,96,0.00,,---,0.02,VWS V14.01,2013-07-23 14:43:00,
2013-07-23 10:48:00,76.6,75.4,29.68,South,172,6.0,9.0,96,0.00,,---,0.02,VWS V14.01,2013-07-23 14:48:00,
2013-07-23 10:53:00,77.1,75.6,29.68,South,184,4.0,6.0,95,0.00,,---,0.02,VWS V14.01,2013-07-23 14:53:00,
2013-07-23 10:58:00,77.6,75.7,29.68,SSE,164,2.0,4.0,94,0.00,,---,0.02,VWS V14.01,2013-07-23 14:58:00,
2013-07-23 11:03:00,77.9,75.7,29.67,South,172,7.0,11.0,93,0.00,,---,0.02,VWS V14.01,2013-07-23 15:03:00,
2013-07-23 11:08:00,78.2,76.0,29.68,SSW,211,1.0,7.0,93,0.00,,---,0.02,VWS V14.01,2013-07-23 15:08:00,
2013-07-23 11:13:00,78.4,75.9,29.67,South,180,3.0,6.0,92,0.00,,---,0.02,VWS V14.01,2013-07-23 15:13:00,
2013-07-23 11:18:00,78.5,76.0,29.67,SSW,212,3.0,6.0,92,0.00,,---,0.02,VWS V14.01,2013-07-23 15:18:00,
2013-07-23 11:23:00,78.8,75.9,29.67,South,183,3.0,10.0,91,0.00,,---,0.02,VWS V14.01,2013-07-23 15:23:00,
2013-07-23 11:28:00,79.1,76.6,29.67,SW,222,9.0,9.0,92,0.00,,---,0.02,VWS V14.01,2013-07-23 15:28:00,
2013-07-23 11:33:00,79.5,76.7,29.67,South,188,3.0,9.0,91,0.00,,---,0.02,VWS V14.01,2013-07-23 15:33:00,
2013-07-23 11:38:00,79.6,76.4,29.67,South,172,2.0,9.0,90,0.00,,---,0.02,VWS V14.01,2013-07-23 15:38:00,
2013-07-23 11:43:00,79.7,76.5,29.67,South,184,2.0,10.0,90,0.00,,---,0.02,VWS V14.01,2013-07-23 15:43:00,
2013-07-23 11:48:00,79.8,76.6,29.67,SSW,206,2.0,17.0,90,0.00,,---,0.02,VWS V14.01,2013-07-23 15:48:00,
2013-07-23 11:53:00,79.7,76.5,29.66,South,179,1.0,10.0,90,0.00,,---,0.02,VWS V14.01,2013-07-23 15:53:00,
2013-07-23 11:58:00,79.6,76.4,29.66,South,177,7.0,13.0,90,0.00,,---,0.02,VWS V14.01,2013-07-23 15:58:00,
2013-07-23 12:03:00,79.6,76.8,29.66,SSW,193,6.0,9.0,91,0.00,,---,0.02,VWS V14.01,2013-07-23 16:03:00,
2013-07-23 12:08:00,79.4,76.2,29.66,SSW,200,4.0,9.0,90,0.00,,---,0.02,VWS V14.01,2013-07-23 16:08:00,
2013-07-23 12:13:00,79.3,76.4,29.66,SSE,164,4.0,7.0,91,0.00,,---,0.02,VWS V14.01,2013-07-23 16:13:00,
2013-07-23 12:18:00,79.4,76.2,29.66,South,185,3.0,10.0,90,0.00,,---,0.02,VWS V14.01,2013-07-23 16:18:00,
2013-07-23 12:23:00,79.6,76.4,29.66,SSW,206,5.0,11.0,90,0.00,,---,0.02,VWS V14.01,2013-07-23 16:23:00,
2013-07-23 12:28:00,79.5,76.3,29.66,South,189,4.0,11.0,90,0.00,,---,0.02,VWS V14.01,2013-07-23 16:28:00,
2013-07-23 12:33:00,79.2,76.3,29.65,SSW,197,4.0,9.0,91,0.00,,---,0.02,VWS V14.01,2013-07-23 16:33:00,
2013-07-23 12:38:00,79.0,76.2,29.65,SSW,196,4.0,10.0,91,0.00,,---,0.02,VWS V14.01,2013-07-23 16:38:00,
2013-07-23 12:43:00,78.9,76.1,29.65,South,191,5.0,11.0,91,0.00,,---,0.02,VWS V14.01,2013-07-23 16:43:00,
2013-07-23 12:48:00,79.0,76.2,29.65,SSE,156,4.0,12.0,91,0.00,,---,0.02,VWS V14.01,2013-07-23 16:48:00,
2013-07-23 12:53:00,79.1,76.2,29.64,South,185,5.0,12.0,91,0.00,,---,0.02,VWS V14.01,2013-07-23 16:53:00,
2013-07-23 12:58:00,79.5,76.7,29.64,South,170,3.0,12.0,91,0.00,,---,0.02,VWS V14.01,2013-07-23 16:58:00,
2013-07-23 13:03:00,79.7,76.5,29.64,SSE,164,8.0,12.0,90,0.00,,---,0.02,VWS V14.01,2013-07-23 17:03:00,
2013-07-23 13:08:00,79.5,76.3,29.64,South,180,4.0,12.0,90,0.00,,---,0.02,VWS V14.01,2013-07-23 17:08:00,
2013-07-23 13:13:00,79.7,76.5,29.63,SSW,212,11.0,12.0,90,0.00,,---,0.02,VWS V14.01,2013-07-23 17:13:00,
2013-07-23 13:18:00,79.9,76.7,29.63,SSW,192,4.0,11.0,90,0.00,,---,0.02,VWS V14.01,2013-07-23 17:18:00,
2013-07-23 13:23:00,80.1,76.6,29.63,South,183,7.0,12.0,89,0.00,,---,0.02,VWS V14.01,2013-07-23 17:23:00,
2013-07-23 13:28:00,80.1,76.6,29.63,South,183,4.0,13.0,89,0.00,,---,0.02,VWS V14.01,2013-07-23 17:28:00,
2013-07-23 13:33:00,79.5,76.3,29.63,South,179,4.0,10.0,90,0.00,,---,0.02,VWS V14.01,2013-07-23 17:33:00,
2013-07-23 13:38:00,79.2,76.3,29.63,South,191,4.0,10.0,91,0.00,,---,0.02,VWS V14.01,2013-07-23 17:38:00,
2013-07-23 13:43:00,79.8,76.9,29.63,South,183,3.0,10.0,91,0.00,,---,0.02,VWS V14.01,2013-07-23 17:43:00,
2013-07-23 13:48:00,80.0,76.5,29.63,South,183,5.0,14.0,89,0.00,,---,0.02,VWS V14.01,2013-07-23 17:48:00,
2013-07-23 13:53:00,79.9,76.7,29.63,South,191,7.0,16.0,90,0.00,,---,0.02,VWS V14.01,2013-07-23 17:53:00,
2013-07-23 13:58:00,80.0,76.8,29.62,SW,220,11.0,16.0,90,0.00,,---,0.02,VWS V14.01,2013-07-23 17:58:00,
2013-07-23 14:03:00,80.1,76.6,29.62,SW,218,3.0,19.0,89,0.00,,---,0.02,VWS V14.01,2013-07-23 18:03:00,
2013-07-23 14:08:00,80.3,76.8,29.62,SSW,210,6.0,14.0,89,0.00,,---,0.02,VWS V14.01,2013-07-23 18:08:00,
2013-07-23 14:13:00,80.4,76.9,29.62,WSW,241,6.0,13.0,89,0.00,,---,0.02,VWS V14.01,2013-07-23 18:13:00,
2013-07-23 14:19:00,80.3,76.8,29.61,South,187,2.0,14.0,89,0.00,,---,0.02,VWS V14.01,2013-07-23 18:19:00,
2013-07-23 14:24:00,80.2,76.7,29.62,SW,216,9.0,12.0,89,0.00,,---,0.02,VWS V14.01,2013-07-23 18:24:00,
2013-07-23 14:29:00,80.1,76.9,29.61,South,181,7.0,19.0,90,0.00,,---,0.02,VWS V14.01,2013-07-23 18:29:00,
2013-07-23 14:34:00,80.2,77.0,29.61,South,183,4.0,13.0,90,0.00,,---,0.02,VWS V14.01,2013-07-23 18:34:00,
2013-07-23 14:39:00,80.2,77.0,29.61,SE,146,3.0,18.0,90,0.00,,---,0.02,VWS V14.01,2013-07-23 18:39:00,
2013-07-23 14:44:00,80.2,77.0,29.61,SW,217,3.0,15.0,90,0.00,,---,0.02,VWS V14.01,2013-07-23 18:44:00,
2013-07-23 14:49:00,80.0,76.5,29.61,SW,220,6.0,18.0,89,0.00,,---,0.02,VWS V14.01,2013-07-23 18:49:00,
2013-07-23 14:54:00,79.8,76.6,29.61,SSW,200,5.0,20.0,90,0.00,,---,0.02,VWS V14.01,2013-07-23 18:54:00,
2013-07-23 14:59:00,80.1,76.9,29.61,SW,235,12.0,23.0,90,0.00,,---,0.02,VWS V14.01,2013-07-23 18:59:00,
2013-07-23 15:04:00,80.2,76.7,29.61,South,187,6.0,14.0,89,0.00,,---,0.02,VWS V14.01,2013-07-23 19:04:00,
2013-07-23 15:09:00,80.2,76.7,29.61,South,176,4.0,19.0,89,0.00,,---,0.02,VWS V14.01,2013-07-23 19:09:00,
2013-07-23 15:14:00,80.0,76.5,29.60,SW,219,13.0,17.0,89,0.00,,---,0.02,VWS V14.01,2013-07-23 19:14:00,
2013-07-23 15:19:00,79.7,76.2,29.60,SW,234,5.0,17.0,89,0.00,,---,0.02,VWS V14.01,2013-07-23 19:19:00,
2013-07-23 15:24:00,79.3,76.1,29.60,South,187,10.0,16.0,90,0.00,,---,0.02,VWS V14.01,2013-07-23 19:24:00,
2013-07-23 15:29:00,79.1,75.9,29.60,WSW,251,14.0,14.0,90,0.00,,---,0.02,VWS V14.01,2013-07-23 19:29:00,
2013-07-23 15:35:00,79.1,75.9,29.60,SSW,210,6.0,17.0,90,0.00,,---,0.02,VWS V14.01,2013-07-23 19:35:00,
2013-07-23 15:39:00,78.9,75.7,29.60,SSW,210,2.0,18.0,90,0.00,,---,0.02,VWS V14.01,2013-07-23 19:39:00,
2013-07-23 15:45:00,79.0,75.8,29.60,SSW,195,5.0,7.0,90,0.00,,---,0.02,VWS V14.01,2013-07-23 19:45:00,
2013-07-23 15:50:00,79.0,75.8,29.60,SSW,198,5.0,6.0,90,0.00,,---,0.02,VWS V14.01,2013-07-23 19:50:00,
2013-07-23 15:55:00,78.7,75.5,29.60,SW,214,12.0,12.0,90,0.00,,---,0.02,VWS V14.01,2013-07-23 19:55:00,
2013-07-23 16:00:00,78.5,75.3,29.60,SSW,204,6.0,9.0,90,0.00,,---,0.02,VWS V14.01,2013-07-23 20:00:00,
2013-07-23 16:05:00,78.3,75.1,29.60,SSW,199,4.0,6.0,90,0.00,,---,0.02,VWS V14.01,2013-07-23 20:05:00,
2013-07-23 16:10:00,78.2,75.4,29.60,SSW,212,9.0,12.0,91,0.00,,---,0.02,VWS V14.01,2013-07-23 20:10:00,
2013-07-23 16:15:00,78.3,75.5,29.60,SW,235,9.0,9.0,91,0.00,,---,0.02,VWS V14.01,2013-07-23 20:15:00,
2013-07-23 16:20:00,78.4,75.2,29.60,SW,233,3.0,9.0,90,0.00,,---,0.02,VWS V14.01,2013-07-23 20:20:00,
2013-07-23 16:25:00,78.4,75.2,29.60,WSW,243,6.0,13.0,90,0.00,,---,0.02,VWS V14.01,2013-07-23 20:25:00,
2013-07-23 16:30:00,78.2,75.0,29.60,WSW,241,15.0,16.0,90,0.00,,---,0.02,VWS V14.01,2013-07-23 20:30:00,
2013-07-23 16:35:00,78.0,75.2,29.60,WSW,237,6.0,9.0,91,0.00,,---,0.02,VWS V14.01,2013-07-23 20:35:00,
2013-07-23 16:40:00,78.0,74.8,29.60,WSW,243,10.0,17.0,90,0.00,,---,0.02,VWS V14.01,2013-07-23 20:40:00,
2013-07-23 16:45:00,78.1,74.9,29.60,SW,231,21.0,21.0,90,0.00,,---,0.02,VWS V14.01,2013-07-23 20:45:00,
2013-07-23 16:50:00,77.9,74.7,29.60,WSW,243,13.0,18.0,90,0.00,,---,0.02,VWS V14.01,2013-07-23 20:50:00,
2013-07-23 16:56:00,77.5,74.3,29.60,SW,231,9.0,18.0,90,0.00,,---,0.02,VWS V14.01,2013-07-23 20:56:00,
2013-07-23 17:01:00,77.2,74.4,29.60,SSW,198,8.0,21.0,91,0.00,,---,0.02,VWS V14.01,2013-07-23 21:01:00,
2013-07-23 17:06:00,77.0,74.2,29.60,SSW,199,11.0,20.0,91,0.00,,---,0.02,VWS V14.01,2013-07-23 21:06:00,
2013-07-23 17:11:00,77.0,74.2,29.60,SW,231,12.0,17.0,91,0.00,,---,0.02,VWS V14.01,2013-07-23 21:11:00,
2013-07-23 17:16:00,77.0,74.2,29.60,SW,216,5.0,16.0,91,0.00,,---,0.02,VWS V14.01,2013-07-23 21:16:00,
2013-07-23 17:21:00,76.9,74.1,29.59,South,177,7.0,19.0,91,0.00,,---,0.02,VWS V14.01,2013-07-23 21:21:00,
2013-07-23 17:26:00,76.7,74.2,29.59,SW,215,4.0,19.0,92,0.00,,---,0.02,VWS V14.01,2013-07-23 21:26:00,
2013-07-23 17:31:00,76.5,74.0,29.59,SSW,205,9.0,15.0,92,0.00,,---,0.02,VWS V14.01,2013-07-23 21:31:00,
2013-07-23 17:36:00,76.3,74.1,29.59,SSW,199,4.0,15.0,93,0.00,,---,0.02,VWS V14.01,2013-07-23 21:36:00,
2013-07-23 17:41:00,76.2,74.0,29.58,SW,216,11.0,19.0,93,0.00,,---,0.02,VWS V14.01,2013-07-23 21:41:00,
2013-07-23 17:47:00,76.2,74.0,29.58,WSW,257,10.0,21.0,93,0.00,,---,0.02,VWS V14.01,2013-07-23 21:47:00,
2013-07-23 17:52:00,76.5,74.3,29.58,SW,218,12.0,21.0,93,0.00,,---,0.02,VWS V14.01,2013-07-23 21:52:00,
2013-07-23 17:57:00,76.8,74.3,29.58,South,188,6.0,14.0,92,0.00,,---,0.02,VWS V14.01,2013-07-23 21:57:00,
2013-07-23 18:02:00,77.0,74.5,29.59,SW,233,10.0,18.0,92,0.00,,---,0.02,VWS V14.01,2013-07-23 22:02:00,
2013-07-23 18:07:00,76.9,74.4,29.59,SW,224,10.0,18.0,92,0.00,,---,0.02,VWS V14.01,2013-07-23 22:07:00,
2013-07-23 18:12:00,76.8,74.3,29.59,SSW,206,6.0,20.0,92,0.00,,---,0.02,VWS V14.01,2013-07-23 22:12:00,
2013-07-23 18:17:00,76.5,74.3,29.59,South,189,8.0,19.0,93,0.00,,---,0.02,VWS V14.01,2013-07-23 22:17:00,
2013-07-23 18:22:00,76.3,74.1,29.59,SSW,204,7.0,18.0,93,0.00,,---,0.02,VWS V14.01,2013-07-23 22:22:00,
2013-07-23 18:27:00,76.1,74.2,29.59,SW,223,12.0,20.0,94,0.00,,---,0.02,VWS V14.01,2013-07-23 22:27:00,
2013-07-23 18:33:00,75.9,74.1,29.59,WSW,247,13.0,22.0,94,0.00,,---,0.02,VWS V14.01,2013-07-23 22:33:00,
2013-07-23 18:38:00,75.8,73.9,29.59,SW,216,5.0,18.0,94,0.00,,---,0.02,VWS V14.01,2013-07-23 22:38:00,
2013-07-23 18:43:00,75.7,74.2,29.59,SW,216,1.0,13.0,95,0.00,,---,0.02,VWS V14.01,2013-07-23 22:43:00,
2013-07-23 18:48:00,75.7,74.2,29.59,SW,225,1.0,16.0,95,0.00,,---,0.02,VWS V14.01,2013-07-23 22:48:00,
2013-07-23 18:53:00,75.8,74.3,29.60,WSW,246,13.0,14.0,95,0.00,,---,0.02,VWS V14.01,2013-07-23 22:53:00,
2013-07-23 18:58:00,75.8,74.3,29.60,SW,231,10.0,15.0,95,0.00,,---,0.02,VWS V14.01,2013-07-23 22:58:00,
2013-07-23 19:03:00,75.9,74.4,29.61,SW,235,17.0,17.0,95,0.00,,---,0.02,VWS V14.01,2013-07-23 23:03:00,
2013-07-23 19:08:00,75.8,74.3,29.61,SW,227,9.0,14.0,95,0.00,,---,0.02,VWS V14.01,2013-07-23 23:08:00,
2013-07-23 19:13:00,75.8,74.3,29.61,SSW,208,3.0,13.0,95,0.00,,---,0.02,VWS V14.01,2013-07-23 23:13:00,
2013-07-23 19:18:00,75.8,74.3,29.61,SW,217,5.0,11.0,95,0.00,,---,0.02,VWS V14.01,2013-07-23 23:18:00,
2013-07-23 19:24:00,75.7,74.2,29.61,SW,224,10.0,14.0,95,0.00,,---,0.02,VWS V14.01,2013-07-23 23:24:00,
2013-07-23 19:29:00,75.7,74.2,29.61,SW,220,5.0,21.0,95,0.00,,---,0.02,VWS V14.01,2013-07-23 23:29:00,
2013-07-23 19:34:00,75.6,74.1,29.61,SSW,196,6.0,18.0,95,0.00,,---,0.02,VWS V14.01,2013-07-23 23:34:00,
2013-07-23 19:39:00,75.6,74.1,29.61,WSW,241,3.0,15.0,95,0.00,,---,0.02,VWS V14.01,2013-07-23 23:39:00,
2013-07-23 19:44:00,75.6,74.4,29.61,SW,222,9.0,14.0,96,0.00,,---,0.02,VWS V14.01,2013-07-23 23:44:00,
2013-07-23 19:49:00,75.5,74.3,29.61,WSW,244,11.0,20.0,96,0.00,,---,0.02,VWS V14.01,2013-07-23 23:49:00,
2013-07-23 19:54:00,75.5,74.3,29.60,SW,218,4.0,15.0,96,0.00,,---,0.02,VWS V14.01,2013-07-23 23:54:00,
2013-07-23 19:59:00,75.4,74.2,29.61,SW,224,6.0,11.0,96,0.00,,---,0.02,VWS V14.01,2013-07-23 23:59:00,
2013-07-23 20:05:00,75.4,74.2,29.61,SW,233,10.0,15.0,96,0.00,,---,0.02,VWS V14.01,2013-07-24 00:05:00,
2013-07-23 20:10:00,75.3,74.1,29.62,SW,218,3.0,18.0,96,0.00,,---,0.02,VWS V14.01,2013-07-24 00:10:00,
2013-07-23 20:15:00,75.3,74.1,29.61,SSW,199,3.0,14.0,96,0.00,,---,0.02,VWS V14.01,2013-07-24 00:15:00,
2013-07-23 20:20:00,75.3,74.1,29.62,SW,219,10.0,10.0,96,0.00,,---,0.02,VWS V14.01,2013-07-24 00:20:00,
2013-07-23 20:25:00,75.3,74.4,29.62,WSW,240,6.0,6.0,97,0.00,,---,0.02,VWS V14.01,2013-07-24 00:25:00,
2013-07-23 20:30:00,75.3,74.4,29.62,SW,224,9.0,9.0,97,0.00,,---,0.02,VWS V14.01,2013-07-24 00:30:00,
2013-07-23 20:35:00,75.3,74.4,29.61,SW,230,9.0,12.0,97,0.00,,---,0.02,VWS V14.01,2013-07-24 00:35:00,
2013-07-23 20:40:00,75.4,74.5,29.61,SW,231,5.0,11.0,97,0.00,,---,0.02,VWS V14.01,2013-07-24 00:40:00,
2013-07-23 20:45:00,75.4,74.5,29.61,SSW,203,6.0,6.0,97,0.00,,---,0.02,VWS V14.01,2013-07-24 00:45:00,
2013-07-23 20:50:00,75.3,74.4,29.61,SW,216,7.0,7.0,97,0.00,,---,0.02,VWS V14.01,2013-07-24 00:50:00,
2013-07-23 20:56:00,75.2,74.3,29.61,SW,220,3.0,18.0,97,0.00,,---,0.02,VWS V14.01,2013-07-24 00:56:00,
2013-07-23 21:01:00,75.2,74.3,29.61,SW,226,7.0,14.0,97,0.00,,---,0.02,VWS V14.01,2013-07-24 01:01:00,
2013-07-23 21:06:00,75.2,74.3,29.61,WSW,245,7.0,16.0,97,0.00,,---,0.02,VWS V14.01,2013-07-24 01:06:00,
2013-07-23 21:11:00,75.1,74.2,29.61,SW,227,13.0,13.0,97,0.00,,---,0.02,VWS V14.01,2013-07-24 01:11:00,
2013-07-23 21:16:00,75.2,74.3,29.61,SW,235,7.0,10.0,97,0.00,,---,0.02,VWS V14.01,2013-07-24 01:16:00,
2013-07-23 21:21:00,75.1,74.2,29.61,SSW,207,7.0,16.0,97,0.00,,---,0.02,VWS V14.01,2013-07-24 01:21:00,
2013-07-23 21:26:00,75.1,74.5,29.61,WSW,238,9.0,10.0,98,0.00,,---,0.02,VWS V14.01,2013-07-24 01:26:00,
2013-07-23 21:31:00,75.1,74.5,29.61,SW,225,5.0,18.0,98,0.00,,---,0.02,VWS V14.01,2013-07-24 01:31:00,
2013-07-23 21:36:00,75.1,74.5,29.61,SSW,213,7.0,17.0,98,0.00,,---,0.02,VWS V14.01,2013-07-24 01:36:00,
2013-07-23 21:41:00,75.0,74.4,29.62,SW,234,6.0,17.0,98,0.00,,---,0.02,VWS V14.01,2013-07-24 01:41:00,
2013-07-23 21:47:00,75.0,74.4,29.62,WSW,242,4.0,17.0,98,0.00,,---,0.02,VWS V14.01,2013-07-24 01:47:00,
2013-07-23 21:52:00,74.9,74.3,29.62,SW,233,6.0,13.0,98,0.00,,---,0.02,VWS V14.01,2013-07-24 01:52:00,
2013-07-23 21:57:00,74.9,74.3,29.62,SW,234,21.0,21.0,98,0.00,,---,0.02,VWS V14.01,2013-07-24 01:57:00,
2013-07-23 22:02:00,74.8,74.2,29.62,SW,229,16.0,17.0,98,0.00,,---,0.02,VWS V14.01,2013-07-24 02:02:00,
2013-07-23 22:07:00,74.8,74.2,29.62,WSW,251,6.0,14.0,98,0.00,,---,0.02,VWS V14.01,2013-07-24 02:07:00,
2013-07-23 22:12:00,74.7,74.1,29.62,WSW,243,9.0,12.0,98,0.00,,---,0.02,VWS V14.01,2013-07-24 02:12:00,
2013-07-23 22:17:00,74.6,74.0,29.62,SW,234,13.0,16.0,98,0.00,,---,0.02,VWS V14.01,2013-07-24 02:17:00,
2013-07-23 22:22:00,74.6,74.0,29.62,SW,229,3.0,12.0,98,0.00,,---,0.02,VWS V14.01,2013-07-24 02:22:00,
2013-07-23 22:27:00,74.6,74.0,29.62,WSW,240,3.0,9.0,98,0.00,,---,0.02,VWS V14.01,2013-07-24 02:27:00,
2013-07-23 22:32:00,74.6,74.0,29.61,SW,222,5.0,9.0,98,0.00,,---,0.02,VWS V14.01,2013-07-24 02:32:00,
2013-07-23 22:37:00,74.6,74.0,29.61,SW,234,0.0,7.0,98,0.00,,---,0.02,VWS V14.01,2013-07-24 02:37:00,
2013-07-23 22:42:00,74.6,74.0,29.62,SW,225,3.0,11.0,98,0.00,,---,0.02,VWS V14.01,2013-07-24 02:42:00,
2013-07-23 22:47:00,74.5,73.9,29.62,SW,226,5.0,9.0,98,0.00,,---,0.02,VWS V14.01,2013-07-24 02:47:00,
2013-07-23 22:52:00,74.5,73.9,29.62,SW,235,5.0,9.0,98,0.00,,---,0.02,VWS V14.01,2013-07-24 02:52:00,
2013-07-23 22:57:00,74.5,73.9,29.63,WSW,247,12.0,15.0,98,0.00,,---,0.02,VWS V14.01,2013-07-24 02:57:00,
2013-07-23 23:02:00,74.4,73.8,29.63,WSW,242,5.0,12.0,98,0.00,,---,0.02,VWS V14.01,2013-07-24 03:02:00,
2013-07-23 23:08:00,74.3,73.7,29.63,SW,231,4.0,17.0,98,0.00,,---,0.02,VWS V14.01,2013-07-24 03:08:00,
2013-07-23 23:13:00,74.2,73.6,29.63,SW,233,5.0,14.0,98,0.00,,---,0.02,VWS V14.01,2013-07-24 03:13:00,
2013-07-23 23:18:00,74.1,73.5,29.63,SW,226,6.0,10.0,98,0.00,,---,0.02,VWS V14.01,2013-07-24 03:18:00,
2013-07-23 23:23:00,74.0,73.4,29.63,SW,234,9.0,10.0,98,0.00,,---,0.02,VWS V14.01,2013-07-24 03:23:00,
2013-07-23 23:28:00,73.9,73.3,29.62,SW,220,2.0,6.0,98,0.00,,---,0.02,VWS V14.01,2013-07-24 03:28:00,
2013-07-23 23:34:00,73.8,73.2,29.62,SW,216,2.0,10.0,98,0.00,,---,0.02,VWS V14.01,2013-07-24 03:34:00,
2013-07-23 23:39:00,73.7,73.1,29.62,SSW,204,4.0,5.0,98,0.00,,---,0.02,VWS V14.01,2013-07-24 03:39:00,
2013-07-23 23:44:00,73.7,72.8,29.62,SSW,202,1.0,5.0,97,0.00,,---,0.02,VWS V14.01,2013-07-24 03:44:00,
2013-07-23 23:49:00,73.5,72.6,29.62,SW,222,6.0,6.0,97,0.00,,---,0.02,VWS V14.01,2013-07-24 03:49:00,
2013-07-23 23:54:00,73.4,72.5,29.62,SSW,208,3.0,7.0,97,0.00,,---,0.02,VWS V14.01,2013-07-24 03:54:00,